createdAt,value
2018-10-09T00:01:33.885Z,98928.16
2018-10-09T00:04:02.211Z,98923.23
2018-10-09T00:06:30.959Z,98920.26
2018-10-09T00:08:59.364Z,98922.34
2018-10-09T00:11:28.286Z,98921.33
2018-10-09T00:13:57.106Z,98926.71
2018-10-09T00:16:25.708Z,98919.48
2018-10-09T00:18:53.962Z,98928.06
2018-10-09T00:21:22.188Z,98928.52
2018-10-09T00:23:50.501Z,98932.56
2018-10-09T00:26:18.777Z,98937.00
2018-10-09T00:28:47.445Z,98942.88
2018-10-09T00:31:15.700Z,98938.08
2018-10-09T00:33:44.248Z,98940.38
2018-10-09T00:36:12.616Z,98936.52
2018-10-09T00:38:40.992Z,98941.25
2018-10-09T00:41:09.615Z,98945.98
2018-10-09T00:43:38.043Z,98939.70
2018-10-09T00:46:06.716Z,98936.09
2018-10-09T00:48:35.404Z,98938.70
2018-10-09T00:51:04.108Z,98934.92
2018-10-09T00:53:32.432Z,98931.84
2018-10-09T00:56:01.641Z,98922.19
2018-10-09T00:58:30.018Z,98919.81
2018-10-09T01:00:58.568Z,98913.83
2018-10-09T01:03:26.909Z,98919.03
2018-10-09T01:05:55.215Z,98914.83
2018-10-09T01:08:23.521Z,98911.95
2018-10-09T01:10:52.101Z,98914.53
2018-10-09T01:13:20.421Z,98915.14
2018-10-09T01:15:48.873Z,98915.06
2018-10-09T01:18:17.186Z,98911.56
2018-10-09T01:20:45.616Z,98912.02
2018-10-09T01:23:14.140Z,98913.73
2018-10-09T01:25:43.135Z,98920.61
2018-10-09T01:28:11.413Z,98918.56
2018-10-09T01:30:40.027Z,98925.34
2018-10-09T01:33:08.589Z,98924.20
2018-10-09T01:35:43.686Z,98921.63
2018-10-09T01:38:11.933Z,98915.98
2018-10-09T01:40:40.456Z,98920.39
2018-10-09T01:43:08.725Z,98921.44
2018-10-09T01:45:37.207Z,98915.61
2018-10-09T01:48:06.266Z,98915.52
2018-10-09T01:50:34.676Z,98915.14
2018-10-09T01:53:03.028Z,98913.95
2018-10-09T01:55:31.559Z,98908.38
2018-10-09T01:58:00.415Z,98909.66
2018-10-09T02:00:28.604Z,98909.92
2018-10-09T02:02:57.888Z,98909.58
2018-10-09T02:05:26.633Z,98905.09
2018-10-09T02:07:55.779Z,98903.05
2018-10-09T02:10:24.266Z,98893.94
2018-10-09T02:12:53.097Z,98891.94
2018-10-09T02:15:21.401Z,98892.06
2018-10-09T02:17:50.982Z,98891.61
2018-10-09T02:20:19.227Z,98891.40
2018-10-09T02:22:48.923Z,98886.86
2018-10-09T02:25:17.474Z,98885.83
2018-10-09T02:27:45.798Z,98879.09
2018-10-09T02:30:14.173Z,98872.05
2018-10-09T02:32:42.846Z,98878.58
2018-10-09T02:35:11.539Z,98882.63
2018-10-09T02:37:40.095Z,98886.26
2018-10-09T02:40:09.235Z,98883.82
2018-10-09T02:42:37.750Z,98885.60
2018-10-09T02:45:07.055Z,98881.53
2018-10-09T02:47:35.289Z,98891.62
2018-10-09T02:50:04.648Z,98886.88
2018-10-09T02:52:32.949Z,98890.31
2018-10-09T02:55:01.510Z,98891.84
2018-10-09T02:57:29.813Z,98888.35
2018-10-09T02:59:58.062Z,98892.32
2018-10-09T03:02:26.562Z,98891.17
2018-10-09T03:04:55.396Z,98897.89
2018-10-09T03:07:23.640Z,98892.66
2018-10-09T03:09:51.806Z,98899.08
2018-10-09T03:12:20.024Z,98904.69
2018-10-09T03:14:49.671Z,98897.88
2018-10-09T03:17:18.773Z,98902.55
2018-10-09T03:19:47.271Z,98902.98
2018-10-09T03:22:17.084Z,98898.34
2018-10-09T03:24:45.326Z,98892.10
2018-10-09T03:27:13.999Z,98892.41
2018-10-09T03:29:42.790Z,98884.97
2018-10-09T03:32:11.378Z,98884.14
2018-10-09T03:34:40.311Z,98885.11
2018-10-09T03:37:08.574Z,98882.26
2018-10-09T03:39:37.112Z,98893.51
2018-10-09T03:42:05.360Z,98893.33
2018-10-09T03:44:33.617Z,98890.77
2018-10-09T03:47:02.420Z,98893.70
2018-10-09T03:49:31.794Z,98894.63
2018-10-09T03:52:00.118Z,98890.75
2018-10-09T03:54:28.356Z,98891.66
2018-10-09T03:56:56.582Z,98898.95
2018-10-09T03:59:24.879Z,98906.40
2018-10-09T04:01:54.496Z,98911.45
2018-10-09T04:04:22.765Z,98909.90
2018-10-09T04:06:51.085Z,98907.91
2018-10-09T04:09:19.907Z,98902.19
2018-10-09T04:11:48.553Z,98906.98
2018-10-09T04:14:17.275Z,98899.60
2018-10-09T04:16:45.932Z,98906.81
2018-10-09T04:19:14.242Z,98911.05
2018-10-09T04:21:42.752Z,98914.42
2018-10-09T04:24:10.954Z,98917.19
2018-10-09T04:26:40.140Z,98916.02
2018-10-09T04:29:08.727Z,98917.83
2018-10-09T04:31:37.014Z,98911.20
2018-10-09T04:34:06.387Z,98915.80
2018-10-09T04:36:34.671Z,98922.23
2018-10-09T04:41:44.297Z,98931.50
2018-10-09T04:44:12.533Z,98931.62
2018-10-09T04:46:41.781Z,98941.19
2018-10-09T04:49:10.285Z,98932.83
2018-10-09T04:51:38.594Z,98923.78
2018-10-09T04:54:06.869Z,98921.42
2018-10-09T04:56:35.183Z,98928.03
2018-10-09T04:59:03.497Z,98930.95
2018-10-09T05:01:31.738Z,98923.06
2018-10-09T05:04:00.041Z,98922.91
2018-10-09T05:06:28.533Z,98923.06
2018-10-09T05:08:58.052Z,98921.36
2018-10-09T05:11:26.348Z,98921.66
2018-10-09T05:13:54.749Z,98923.48
2018-10-09T05:16:23.138Z,98925.84
2018-10-09T05:18:51.393Z,98923.17
2018-10-09T05:21:19.703Z,98925.09
2018-10-09T05:23:48.278Z,98924.55
2018-10-09T05:28:54.292Z,98926.42
2018-10-09T05:31:22.742Z,98934.87
2018-10-09T05:33:50.934Z,98933.75
2018-10-09T05:36:19.221Z,98937.04
2018-10-09T05:38:47.719Z,98941.48
2018-10-09T05:41:16.223Z,98945.77
2018-10-09T05:43:44.767Z,98946.95
2018-10-09T05:46:13.013Z,98949.23
2018-10-09T05:48:41.545Z,98948.86
2018-10-09T05:51:09.877Z,98958.01
2018-10-09T05:53:38.392Z,98962.77
2018-10-09T05:56:07.473Z,98960.59
2018-10-09T05:58:36.685Z,98963.20
2018-10-09T06:01:05.061Z,98967.95
2018-10-09T06:03:33.308Z,98970.77
2018-10-09T06:06:02.021Z,98961.86
2018-10-09T06:08:30.986Z,98972.31
2018-10-09T06:10:59.232Z,98973.73
2018-10-09T06:13:27.878Z,98975.52
2018-10-09T06:15:56.449Z,98971.78
2018-10-09T06:18:24.728Z,98965.72
2018-10-09T06:20:53.800Z,98966.02
2018-10-09T06:23:21.942Z,98965.72
2018-10-09T06:25:50.283Z,98965.34
2018-10-09T06:28:18.540Z,98970.68
2018-10-09T06:30:46.926Z,98970.53
2018-10-09T06:33:15.284Z,98968.79
2018-10-09T06:35:43.604Z,98967.43
2018-10-09T06:38:12.472Z,98957.16
2018-10-09T06:40:41.284Z,98954.05
2018-10-09T06:43:09.966Z,98959.21
2018-10-09T06:45:38.582Z,98962.64
2018-10-09T06:48:07.304Z,98962.92
2018-10-09T06:50:35.755Z,98959.19
2018-10-09T06:53:04.704Z,98962.61
2018-10-09T06:55:33.108Z,98963.30
2018-10-09T06:58:01.407Z,98960.72
2018-10-09T07:00:30.981Z,98959.97
2018-10-09T07:02:59.309Z,98960.28
2018-10-09T07:05:28.119Z,98965.13
2018-10-09T07:07:56.473Z,98964.82
2018-10-09T07:10:24.924Z,98959.13
2018-10-09T07:12:53.335Z,98968.75
2018-10-09T07:15:21.942Z,98965.30
2018-10-09T07:17:50.197Z,98968.02
2018-10-09T07:20:19.105Z,98967.31
2018-10-09T07:22:47.468Z,98966.73
2018-10-09T07:25:15.780Z,98967.83
2018-10-09T07:27:44.360Z,98966.52
2018-10-09T07:30:12.532Z,98964.98
2018-10-09T07:32:40.720Z,98964.87
2018-10-09T07:35:09.728Z,98962.64
2018-10-09T07:37:38.716Z,98979.94
2018-10-09T07:40:08.351Z,98980.53
2018-10-09T07:42:37.351Z,98984.18
2018-10-09T07:45:06.629Z,98989.84
2018-10-09T07:47:35.123Z,98996.09
2018-10-09T07:50:03.444Z,98997.00
2018-10-09T07:52:31.657Z,98998.44
2018-10-09T07:55:00.072Z,98994.78
2018-10-09T07:57:28.842Z,98992.63
2018-10-09T07:59:57.423Z,98996.66
2018-10-09T08:02:25.719Z,98995.36
2018-10-09T08:04:54.072Z,99002.58
2018-10-09T08:07:22.921Z,99005.83
2018-10-09T08:09:51.246Z,98998.11
2018-10-09T08:12:19.543Z,99000.01
2018-10-09T08:14:47.847Z,98997.37
2018-10-09T08:17:16.430Z,98991.01
2018-10-09T08:19:45.597Z,98992.70
2018-10-09T08:22:15.451Z,98996.80
2018-10-09T08:24:44.670Z,99001.50
2018-10-09T08:27:13.040Z,98999.81
2018-10-09T08:29:41.758Z,99001.72
2018-10-09T08:32:10.300Z,98999.77
2018-10-09T08:34:38.626Z,99004.03
2018-10-09T08:37:07.198Z,99001.43
2018-10-09T08:39:35.716Z,98993.72
2018-10-09T08:42:03.999Z,98995.80
2018-10-09T08:44:33.663Z,98996.72
2018-10-09T08:47:04.064Z,98997.03
2018-10-09T08:49:32.334Z,98999.53
2018-10-09T08:52:07.537Z,99004.70
2018-10-09T08:54:35.828Z,99007.45
2018-10-09T08:57:04.096Z,99008.80
2018-10-09T08:59:33.142Z,99012.34
2018-10-09T09:02:01.678Z,99008.91
2018-10-09T09:04:30.235Z,99013.52
2018-10-09T09:06:58.463Z,99011.76
2018-10-09T09:09:27.193Z,99012.86
2018-10-09T09:11:55.422Z,99014.02
2018-10-09T09:14:24.804Z,99011.68
2018-10-09T09:16:54.199Z,99012.84
2018-10-09T09:19:23.037Z,99013.13
2018-10-09T09:21:51.296Z,99013.17
2018-10-09T09:24:19.561Z,99008.09
2018-10-09T09:26:48.516Z,99013.20
2018-10-09T09:29:16.793Z,99012.36
2018-10-09T09:31:45.818Z,99009.89
2018-10-09T09:34:17.114Z,99009.02
2018-10-09T09:36:46.300Z,99003.11
2018-10-09T09:39:14.916Z,98994.23
2018-10-09T09:41:43.407Z,98997.97
2018-10-09T09:44:11.826Z,98986.20
2018-10-09T09:46:40.081Z,98982.28
2018-10-09T09:49:09.420Z,98984.12
2018-10-09T09:51:37.800Z,98972.19
2018-10-09T09:54:06.490Z,98978.06
2018-10-09T09:56:34.774Z,98970.05
2018-10-09T09:59:03.660Z,98969.70
2018-10-09T10:01:37.697Z,98968.48
2018-10-09T10:04:14.534Z,98969.57
2018-10-09T10:06:43.062Z,98973.57
2018-10-09T10:09:11.604Z,98962.77
2018-10-09T10:11:40.076Z,98968.70
2018-10-09T10:14:09.783Z,98964.34
2018-10-09T10:16:38.028Z,98964.34
2018-10-09T10:19:07.040Z,98953.30
2018-10-09T10:21:35.304Z,98952.92
2018-10-09T10:24:03.609Z,98960.78
2018-10-09T10:26:31.859Z,98953.25
2018-10-09T10:29:00.132Z,98954.16
2018-10-09T10:31:28.727Z,98949.05
2018-10-09T10:33:57.169Z,98947.65
2018-10-09T10:36:26.270Z,98947.02
2018-10-09T10:38:55.732Z,98936.83
2018-10-09T10:41:23.979Z,98936.67
2018-10-09T10:43:53.661Z,98934.63
2018-10-09T10:46:26.035Z,98934.75
2018-10-09T10:49:09.893Z,98933.14
2018-10-09T10:51:38.479Z,98927.80
2018-10-09T10:54:07.223Z,98926.23
2018-10-09T10:56:36.214Z,98919.50
2018-10-09T10:59:04.589Z,98918.73
2018-10-09T11:01:33.388Z,98915.06
2018-10-09T11:04:01.640Z,98916.94
2018-10-09T11:06:29.941Z,98912.77
2018-10-09T11:08:58.595Z,98911.48
2018-10-09T11:11:26.998Z,98910.22
2018-10-09T11:13:55.885Z,98903.91
2018-10-09T11:16:24.753Z,98902.53
2018-10-09T11:18:55.966Z,98897.84
2018-10-09T11:21:25.674Z,98898.19
2018-10-09T11:23:54.395Z,98901.14
2018-10-09T11:26:22.690Z,98903.24
2018-10-09T11:28:51.077Z,98895.17
2018-10-09T11:31:19.989Z,98901.64
2018-10-09T11:33:48.701Z,98898.34
2018-10-09T11:36:17.524Z,98892.11
2018-10-09T11:38:46.054Z,98891.25
2018-10-09T11:41:14.694Z,98888.05
2018-10-09T11:43:42.933Z,98881.38
2018-10-09T11:46:11.680Z,98880.46
2018-10-09T11:48:39.934Z,98880.66
2018-10-09T11:51:08.252Z,98877.45
2018-10-09T11:53:36.508Z,98879.39
2018-10-09T11:56:04.895Z,98868.27
2018-10-09T11:58:33.821Z,98870.80
2018-10-09T12:01:05.136Z,98866.70
2018-10-09T12:03:33.491Z,98864.67
2018-10-09T12:06:02.384Z,98860.98
2018-10-09T12:08:30.812Z,98861.58
2018-10-09T12:10:59.434Z,98853.45
2018-10-09T12:13:28.363Z,98848.17
2018-10-09T12:15:56.629Z,98844.52
2018-10-09T12:18:24.914Z,98843.77
2018-10-09T12:20:54.157Z,98842.93
2018-10-09T12:23:22.490Z,98835.30
2018-10-09T12:25:52.800Z,98837.25
2018-10-09T12:28:22.505Z,98843.03
2018-10-09T12:30:54.334Z,98842.64
2018-10-09T12:33:22.798Z,98843.03
2018-10-09T12:35:52.097Z,98841.73
2018-10-09T12:38:21.425Z,98841.00
2018-10-09T12:40:50.781Z,98828.80
2018-10-09T12:43:20.307Z,98833.44
2018-10-09T12:45:51.146Z,98832.80
2018-10-09T12:48:21.237Z,98832.81
2018-10-09T12:50:49.643Z,98830.38
2018-10-09T12:53:19.276Z,98824.17
2018-10-09T12:55:47.692Z,98827.24
2018-10-09T12:58:16.286Z,98816.89
2018-10-09T13:00:47.041Z,98816.50
2018-10-09T13:03:16.686Z,98817.69
2018-10-09T13:05:45.056Z,98815.50
2018-10-09T13:08:13.577Z,98814.63
2018-10-09T13:10:42.130Z,98816.45
2018-10-09T13:13:11.637Z,98815.97
2018-10-09T13:15:39.944Z,98813.09
2018-10-09T13:18:08.369Z,98816.25
2018-10-09T13:20:37.622Z,98819.20
2018-10-09T13:23:06.750Z,98807.72
2018-10-09T13:25:35.610Z,98807.47
2018-10-09T13:28:04.124Z,98806.09
2018-10-09T13:30:32.498Z,98800.23
2018-10-09T13:33:00.913Z,98799.59
2018-10-09T13:35:29.656Z,98796.28
2018-10-09T13:37:57.958Z,98797.77
2018-10-09T13:40:26.655Z,98793.77
2018-10-09T13:42:55.597Z,98794.72
2018-10-09T13:45:23.890Z,98797.50
2018-10-09T13:47:53.100Z,98798.16
2018-10-09T13:50:21.454Z,98792.55
2018-10-09T13:52:49.919Z,98792.27
2018-10-09T13:55:18.237Z,98792.30
2018-10-09T13:57:46.515Z,98785.14
2018-10-09T14:00:14.906Z,98784.75
2018-10-09T14:02:43.553Z,98795.50
2018-10-09T14:05:12.541Z,98793.73
2018-10-09T14:07:41.621Z,98791.34
2018-10-09T14:10:11.779Z,98785.25
2018-10-09T14:12:40.811Z,98777.22
2018-10-09T14:15:13.402Z,98779.25
2018-10-09T14:17:42.561Z,98772.59
2018-10-09T14:20:12.292Z,98767.69
2018-10-09T14:22:40.923Z,98759.34
2018-10-09T14:25:09.230Z,98761.88
2018-10-09T14:27:38.639Z,98760.50
2018-10-09T14:30:25.210Z,98759.33
2018-10-09T14:32:53.665Z,98759.42
2018-10-09T14:35:23.175Z,98761.89
2018-10-09T14:37:52.568Z,98747.30
2018-10-09T14:45:39.864Z,98741.30
2018-10-09T14:48:08.156Z,98744.95
2018-10-09T14:50:36.395Z,98746.55
2018-10-09T14:53:04.688Z,98750.30
2018-10-09T14:55:33.529Z,98740.48
2018-10-09T14:58:01.969Z,98736.98
2018-10-09T15:00:30.322Z,98727.25
2018-10-09T15:02:58.800Z,98740.02
2018-10-09T15:05:27.543Z,98739.52
2018-10-09T15:07:56.663Z,98741.75
2018-10-09T15:10:25.225Z,98740.51
2018-10-09T15:12:53.738Z,98737.97
2018-10-09T15:15:22.263Z,98736.39
2018-10-09T15:17:51.410Z,98735.46
2018-10-09T15:20:20.050Z,98738.32
2018-10-09T15:22:48.429Z,98738.92
2018-10-09T15:25:18.025Z,98742.59
2018-10-09T15:27:46.604Z,98742.27
2018-10-09T15:30:15.653Z,98743.59
2018-10-09T15:32:43.884Z,98749.58
2018-10-09T15:35:12.173Z,98745.23
2018-10-09T15:37:41.126Z,98748.18
2018-10-09T15:40:09.448Z,98741.95
2018-10-09T15:42:38.611Z,98749.11
2018-10-09T15:45:09.509Z,98748.31
2018-10-09T15:47:38.105Z,98756.17
2018-10-09T15:50:06.400Z,98756.56
2018-10-09T15:52:34.787Z,98755.80
2018-10-09T15:55:03.123Z,98763.06
2018-10-09T15:57:31.845Z,98761.77
2018-10-09T16:00:00.593Z,98761.17
2018-10-09T16:02:29.767Z,98757.94
2018-10-09T16:04:59.014Z,98759.97
2018-10-09T16:07:27.611Z,98751.06
2018-10-09T16:09:58.222Z,98755.17
2018-10-09T16:12:26.901Z,98762.30
2018-10-09T16:17:35.937Z,98768.53
2018-10-09T16:20:05.325Z,98763.77
2018-10-09T16:22:34.475Z,98768.38
2018-10-09T16:25:03.571Z,98776.09
2018-10-09T16:27:32.153Z,98772.19
2018-10-09T16:30:00.492Z,98778.72
2018-10-09T16:32:29.386Z,98781.17
2018-10-09T16:34:58.733Z,98782.17
2018-10-09T16:37:28.032Z,98779.48
2018-10-09T16:39:57.704Z,98784.62
2018-10-09T16:42:26.355Z,98792.13
2018-10-09T16:44:54.851Z,98795.82
2018-10-09T16:47:23.333Z,98803.20
2018-10-09T16:49:52.363Z,98795.52
2018-10-09T16:52:21.242Z,98796.93
2018-10-09T16:54:50.633Z,98802.46
2018-10-09T16:57:19.555Z,98801.31
2018-10-09T16:59:48.369Z,98805.36
2018-10-09T17:02:17.417Z,98802.23
2018-10-09T17:04:45.871Z,98807.36
2018-10-09T17:07:16.659Z,98807.05
2018-10-09T17:09:47.121Z,98816.65
2018-10-09T17:12:19.193Z,98818.74
2018-10-09T17:14:48.745Z,98820.34
2018-10-09T17:17:19.936Z,98824.55
2018-10-09T17:19:49.535Z,98830.50
2018-10-09T17:22:19.445Z,98830.44
2018-10-09T17:24:48.057Z,98837.53
2018-10-09T17:27:17.313Z,98838.97
2018-10-09T17:29:46.648Z,98836.15
2018-10-09T17:32:15.582Z,98830.14
2018-10-09T17:34:45.609Z,98835.23
2018-10-09T17:37:15.130Z,98839.45
2018-10-09T17:39:43.557Z,98838.97
2018-10-09T17:42:12.300Z,98842.08
2018-10-09T17:44:40.729Z,98847.72
2018-10-09T17:47:10.288Z,98843.20
2018-10-09T17:49:40.542Z,98846.64
2018-10-09T17:52:10.792Z,98851.63
2018-10-09T17:54:39.569Z,98846.60
2018-10-09T17:57:09.576Z,98856.30
2018-10-09T17:59:37.913Z,98851.93
2018-10-09T18:02:07.730Z,98852.48
2018-10-09T18:04:36.266Z,98858.23
2018-10-09T18:07:06.618Z,98859.25
2018-10-09T18:09:35.445Z,98851.91
2018-10-09T18:12:05.067Z,98855.11
2018-10-09T18:14:33.664Z,98853.41
2018-10-09T18:17:03.300Z,98857.48
2018-10-09T18:19:32.055Z,98851.80
2018-10-09T18:22:00.734Z,98855.50
2018-10-09T18:24:29.924Z,98862.94
2018-10-09T18:26:58.379Z,98857.56
2018-10-09T18:29:28.874Z,98858.48
2018-10-09T18:31:58.309Z,98860.31
2018-10-09T18:34:27.515Z,98856.42
2018-10-09T18:36:55.877Z,98857.39
2018-10-09T18:39:25.094Z,98858.13
2018-10-09T18:41:54.030Z,98857.82
2018-10-09T18:44:22.953Z,98860.64
2018-10-09T18:46:51.474Z,98865.00
2018-10-09T18:49:20.674Z,98864.34
2018-10-09T18:51:49.546Z,98863.19
2018-10-09T18:54:19.232Z,98862.73
2018-10-09T18:56:47.954Z,98862.31
2018-10-09T18:59:16.397Z,98868.02
2018-10-09T19:01:45.864Z,98868.30
2018-10-09T19:04:14.960Z,98869.63
2018-10-09T19:06:43.438Z,98869.23
2018-10-09T19:09:13.747Z,98867.39
2018-10-09T19:11:42.766Z,98870.40
2018-10-09T19:14:12.521Z,98874.72
2018-10-09T19:16:43.068Z,98867.09
2018-10-09T19:19:12.172Z,98869.33
2018-10-09T19:21:40.813Z,98873.98
2018-10-09T19:24:09.374Z,98876.82
2018-10-09T19:26:37.625Z,98876.82
2018-10-09T19:29:06.804Z,98875.42
2018-10-09T19:31:35.834Z,98879.81
2018-10-09T19:36:48.797Z,98886.19
2018-10-09T19:39:18.110Z,98887.48
2018-10-09T19:41:46.484Z,98888.31
2018-10-09T19:44:16.143Z,98888.55
2018-10-09T19:46:44.714Z,98884.23
2018-10-09T19:49:13.084Z,98884.48
2018-10-09T19:51:41.898Z,98886.38
2018-10-09T19:54:10.478Z,98886.87
2018-10-09T19:56:38.854Z,98885.69
2018-10-09T19:59:07.556Z,98893.59
2018-10-09T20:01:36.160Z,98897.58
2018-10-09T20:04:04.716Z,98896.53
2018-10-09T20:06:33.628Z,98893.72
2018-10-09T20:09:02.092Z,98891.81
2018-10-09T20:11:30.471Z,98896.91
2018-10-09T20:13:58.843Z,98897.97
2018-10-09T20:16:30.387Z,98900.22
2018-10-09T20:18:58.679Z,98900.22
2018-10-09T20:21:26.934Z,98899.25
2018-10-09T20:23:55.250Z,98892.43
2018-10-09T20:26:24.256Z,98900.22
2018-10-09T20:28:53.864Z,98897.53
2018-10-09T20:31:23.199Z,98896.58
2018-10-09T20:33:51.568Z,98892.10
2018-10-09T20:36:21.508Z,98892.55
2018-10-09T20:38:50.099Z,98896.94
2018-10-09T20:41:18.638Z,98892.23
2018-10-09T20:43:47.046Z,98894.00
2018-10-09T20:46:15.337Z,98892.56
2018-10-09T20:48:43.708Z,98900.94
2018-10-09T20:51:12.339Z,98900.71
2018-10-09T20:53:41.308Z,98896.94
2018-10-09T20:56:09.918Z,98892.47
2018-10-09T20:58:38.682Z,98894.70
2018-10-09T21:01:07.397Z,98895.51
2018-10-09T21:03:35.879Z,98899.06
2018-10-09T21:06:04.479Z,98901.98
2018-10-09T21:08:32.967Z,98903.64
2018-10-09T21:11:01.330Z,98906.13
2018-10-09T21:13:29.633Z,98901.05
2018-10-09T21:15:58.021Z,98898.56
2018-10-09T21:18:26.297Z,98900.09
2018-10-09T21:20:54.572Z,98907.83
2018-10-09T21:23:24.049Z,98903.45
2018-10-09T21:25:52.690Z,98902.76
2018-10-09T21:28:21.014Z,98898.05
2018-10-09T21:30:49.324Z,98896.52
2018-10-09T21:33:18.120Z,98901.70
2018-10-09T21:35:47.433Z,98898.84
2018-10-09T21:38:15.801Z,98897.81
2018-10-09T21:40:44.312Z,98897.55
2018-10-09T21:43:13.171Z,98901.76
2018-10-09T21:45:42.161Z,98895.98
2018-10-09T21:48:10.433Z,98891.05
2018-10-09T21:50:40.901Z,98885.77
2018-10-09T21:53:09.486Z,98884.81
2018-10-09T21:55:38.822Z,98885.03
2018-10-09T21:58:07.059Z,98887.26
2018-10-09T22:00:42.258Z,98882.69
2018-10-09T22:03:10.608Z,98875.52
2018-10-09T22:05:39.819Z,98879.77
2018-10-09T22:08:08.533Z,98872.02
2018-10-09T22:10:38.328Z,98879.27
2018-10-09T22:13:07.333Z,98878.34
2018-10-09T22:15:37.608Z,98884.58
2018-10-09T22:18:06.003Z,98887.34
2018-10-09T22:20:34.429Z,98879.45
2018-10-09T22:23:04.424Z,98877.22
2018-10-09T22:25:33.072Z,98876.63
2018-10-09T22:28:01.335Z,98876.63
2018-10-09T22:30:29.576Z,98878.84
2018-10-09T22:32:57.808Z,98874.49
2018-10-09T22:35:26.473Z,98875.41
2018-10-09T22:37:54.796Z,98876.19
2018-10-09T22:40:23.601Z,98876.64
2018-10-09T22:42:52.424Z,98883.42
2018-10-09T22:45:20.868Z,98880.16
2018-10-09T22:47:49.658Z,98875.33
2018-10-09T22:50:18.033Z,98875.97
2018-10-09T22:52:46.868Z,98875.05
2018-10-09T22:55:15.164Z,98866.83
2018-10-09T22:57:43.985Z,98867.75
2018-10-09T23:00:12.904Z,98868.20
2018-10-09T23:02:41.768Z,98866.66
2018-10-09T23:05:10.362Z,98867.13
2018-10-09T23:07:39.351Z,98863.40
2018-10-09T23:10:07.879Z,98863.95
2018-10-09T23:12:37.121Z,98863.72
2018-10-09T23:15:06.687Z,98865.84
2018-10-09T23:17:35.098Z,98861.64
2018-10-09T23:20:04.686Z,98860.42
2018-10-09T23:22:33.313Z,98867.00
2018-10-09T23:25:01.855Z,98865.59
2018-10-09T23:27:30.760Z,98867.98
2018-10-09T23:29:58.992Z,98860.77
2018-10-09T23:32:27.345Z,98864.39
2018-10-09T23:34:56.113Z,98864.03
2018-10-09T23:37:24.707Z,98857.67
2018-10-09T23:39:53.139Z,98851.82
2018-10-09T23:42:21.439Z,98857.58
2018-10-09T23:44:50.054Z,98852.04
2018-10-09T23:47:18.944Z,98851.89
2018-10-09T23:49:47.159Z,98845.78
2018-10-09T23:52:15.424Z,98842.92
2018-10-09T23:54:44.464Z,98840.34
2018-10-09T23:57:12.814Z,98835.30
2018-10-09T23:59:41.374Z,98836.47
